This is the latest recevied weather packets stored in our database for station/object KB3FKJ. If no packets are shown the sender has not sent any weather packets the latest 1 day(s).
| Time | Temp. | Humidity | Pressure | Rain* | Wind** | Luminosity | Snow |
|---|---|---|---|---|---|---|---|
| 1778003814 | 25° C | 42% | 1007.1 hPa | 0 mm | 1.34 m/s, 175° | 161 W/m² | - |
| 1778003511 | 23.89° C | 40% | 1007.2 hPa | 0 mm | 1.79 m/s, 186° | 143 W/m² | - |
| 1778003207 | 24.44° C | 42% | 1007.1 hPa | 0 mm | 1.79 m/s, 250° | 150 W/m² | - |
| 1778002904 | 25° C | 39% | 1007.3 hPa | 0 mm | 2.68 m/s, 222° | 202 W/m² | - |
| 1778002600 | 25° C | 41% | 1007.4 hPa | 0 mm | 1.79 m/s, 205° | 186 W/m² | - |
| 1778002297 | 24.44° C | 40% | 1007.4 hPa | 0 mm | 4.02 m/s, 241° | 162 W/m² | - |
| 1778001995 | 24.44° C | 40% | 1007.3 hPa | 0 mm | 1.79 m/s, 221° | 180 W/m² | - |
| 1778001692 | 24.44° C | 41% | 1007.2 hPa | 0 mm | 2.68 m/s, 234° | 126 W/m² | - |
| 1778001386 | 24.44° C | 42% | 1007.3 hPa | 0 mm | 4.02 m/s, 244° | 114 W/m² | - |
| 1778001084 | 23.89° C | 46% | 1007.2 hPa | 0 mm | 1.79 m/s, 214° | 112 W/m² | - |
| 1778000781 | 23.89° C | 47% | 1007.3 hPa | 0 mm | 1.79 m/s, 269° | 170 W/m² | - |
| 1778000477 | 24.44° C | 43% | 1007.4 hPa | 0 mm | 2.24 m/s, 301° | 206 W/m² | - |
| 1778000172 | 23.89° C | 43% | 1007.3 hPa | 0 mm | 3.58 m/s, 248° | 203 W/m² | - |
| 1777999868 | 23.89° C | 48% | 1007.4 hPa | 0 mm | 2.24 m/s, 228° | 167 W/m² | - |
| 1777999558 | 23.33° C | 47% | 1007.4 hPa | 0 mm | 3.13 m/s, 324° | 148 W/m² | - |
| 1777999256 | 23.33° C | 46% | 1007.3 hPa | 0 mm | 2.24 m/s, 254° | 159 W/m² | - |
| 1777998955 | 22.78° C | 45% | 1007.6 hPa | 0 mm | 2.24 m/s, 299° | 187 W/m² | - |
| 1777998651 | 22.78° C | 45% | 1007.8 hPa | 0 mm | 2.68 m/s, 210° | 195 W/m² | - |
| 1777998344 | 23.33° C | 44% | 1007.8 hPa | 0 mm | 4.47 m/s, 251° | 191 W/m² | - |
| 1777998041 | 23.33° C | 48% | 1007.7 hPa | 0 mm | 3.13 m/s, 278° | 190 W/m² | - |
| 1777997738 | 23.33° C | 49% | 1008 hPa | 0 mm | 1.79 m/s, 271° | 190 W/m² | - |
| 1777997435 | 23.33° C | 47% | 1007.9 hPa | 0 mm | 3.13 m/s, 271° | 166 W/m² | - |
| 1777997133 | 23.89° C | 46% | 1007.9 hPa | 0 mm | 2.24 m/s, 258° | 146 W/m² | - |
| 1777996830 | 23.33° C | 47% | 1008 hPa | 0 mm | 4.02 m/s, 254° | 153 W/m² | - |
| 1777996526 | 23.33° C | 46% | 1008.3 hPa | 0 mm | 4.02 m/s, 259° | 129 W/m² | - |
* Rain latest hour (hover to see other rain measurements)
** Current wind speed in m/s (hover to see current wind gust speed)